sensor_id;sensor_type;location;lat;lon;timestamp;pressure;altitude;pressure_sealevel;temperature;humidity
59190;BME280;50749;51.636;4.948;2023-07-09T00:02:22;101739.78;;;24.01;57.32
59190;BME280;50749;51.636;4.948;2023-07-09T00:04:48;101742.19;;;24.03;57.38
59190;BME280;50749;51.636;4.948;2023-07-09T00:07:32;101739.78;;;24.01;57.57
59190;BME280;50749;51.636;4.948;2023-07-09T00:09:58;101746.16;;;24.02;57.78
59190;BME280;50749;51.636;4.948;2023-07-09T00:12:25;101744.56;;;24.01;57.62
59190;BME280;50749;51.636;4.948;2023-07-09T00:14:51;101735.75;;;23.99;57.73
59190;BME280;50749;51.636;4.948;2023-07-09T00:17:31;101747.75;;;23.99;57.41
59190;BME280;50749;51.636;4.948;2023-07-09T00:19:59;101746.13;;;23.98;57.35
59190;BME280;50749;51.636;4.948;2023-07-09T00:22:25;101757.28;;;23.98;57.91
59190;BME280;50749;51.636;4.948;2023-07-09T00:24:52;101762.06;;;23.98;57.87
59190;BME280;50749;51.636;4.948;2023-07-09T00:27:25;101761.25;;;23.97;57.91
59190;BME280;50749;51.636;4.948;2023-07-09T00:29:53;101760.47;;;23.97;57.98
59190;BME280;50749;51.636;4.948;2023-07-09T00:32:20;101749.28;;;23.97;57.80
59190;BME280;50749;51.636;4.948;2023-07-09T00:34:50;101754.44;;;23.95;57.85
59190;BME280;50749;51.636;4.948;2023-07-09T00:37:19;101756.44;;;23.94;57.91
59190;BME280;50749;51.636;4.948;2023-07-09T00:39:48;101756.44;;;23.94;57.81
59190;BME280;50749;51.636;4.948;2023-07-09T00:42:17;101754.81;;;23.93;58.17
59190;BME280;50749;51.636;4.948;2023-07-09T00:44:50;101762.41;;;23.92;58.26
59190;BME280;50749;51.636;4.948;2023-07-09T00:50:09;101753.19;;;23.92;58.02
59190;BME280;50749;51.636;4.948;2023-07-09T00:52:43;101754.41;;;23.91;57.95
59190;BME280;50749;51.636;4.948;2023-07-09T00:55:16;101745.22;;;23.90;58.08
59190;BME280;50749;51.636;4.948;2023-07-09T00:57:46;101753.59;;;23.90;57.93
59190;BME280;50749;51.636;4.948;2023-07-09T01:00:30;101755.56;;;23.90;57.95
59190;BME280;50749;51.636;4.948;2023-07-09T01:03:10;101764.34;;;23.88;58.42
59190;BME280;50749;51.636;4.948;2023-07-09T01:05:38;101760.38;;;23.89;58.28
59190;BME280;50749;51.636;4.948;2023-07-09T01:08:06;101757.94;;;23.88;58.40
59190;BME280;50749;51.636;4.948;2023-07-09T01:10:35;101754.38;;;23.87;57.84
59190;BME280;50749;51.636;4.948;2023-07-09T01:13:01;101769.13;;;23.88;57.96
59190;BME280;50749;51.636;4.948;2023-07-09T01:15:27;101763.13;;;23.86;58.25
59190;BME280;50749;51.636;4.948;2023-07-09T01:17:53;101767.50;;;23.87;58.23
59190;BME280;50749;51.636;4.948;2023-07-09T01:20:20;101768.69;;;23.86;58.45
59190;BME280;50749;51.636;4.948;2023-07-09T01:22:48;101769.88;;;23.85;58.13
59190;BME280;50749;51.636;4.948;2023-07-09T01:25:16;101767.06;;;23.85;58.28
59190;BME280;50749;51.636;4.948;2023-07-09T01:27:45;101775.44;;;23.85;58.25
59190;BME280;50749;51.636;4.948;2023-07-09T01:32:42;101771.03;;;23.84;58.38
59190;BME280;50749;51.636;4.948;2023-07-09T01:35:14;101777.81;;;23.83;58.48
59190;BME280;50749;51.636;4.948;2023-07-09T01:37:41;101780.63;;;23.83;58.47
59190;BME280;50749;51.636;4.948;2023-07-09T01:40:08;101781.41;;;23.83;58.17
59190;BME280;50749;51.636;4.948;2023-07-09T01:42:35;101779.81;;;23.82;58.00
59190;BME280;50749;51.636;4.948;2023-07-09T01:45:04;101787.38;;;23.82;58.02
59190;BME280;50749;51.636;4.948;2023-07-09T01:47:30;101785.75;;;23.81;58.24
59190;BME280;50749;51.636;4.948;2023-07-09T01:49:56;101787.38;;;23.82;58.48
59190;BME280;50749;51.636;4.948;2023-07-09T01:52:27;101786.53;;;23.81;58.42
59190;BME280;50749;51.636;4.948;2023-07-09T01:54:54;101777.38;;;23.81;58.08
59190;BME280;50749;51.636;4.948;2023-07-09T01:57:23;101776.53;;;23.80;58.09
59190;BME280;50749;51.636;4.948;2023-07-09T01:59:52;101773.75;;;23.80;57.94
59190;BME280;50749;51.636;4.948;2023-07-09T02:02:23;101778.53;;;23.80;58.49
59190;BME280;50749;51.636;4.948;2023-07-09T02:04:52;101772.16;;;23.79;58.28
59190;BME280;50749;51.636;4.948;2023-07-09T02:07:19;101774.13;;;23.79;58.09
59190;BME280;50749;51.636;4.948;2023-07-09T02:09:45;101777.75;;;23.79;58.54
59190;BME280;50749;51.636;4.948;2023-07-09T02:12:12;101774.13;;;23.79;58.52
59190;BME280;50749;51.636;4.948;2023-07-09T02:14:39;101772.53;;;23.78;58.19
59190;BME280;50749;51.636;4.948;2023-07-09T02:17:06;101766.94;;;23.78;58.23
59190;BME280;50749;51.636;4.948;2023-07-09T02:19:32;101765.31;;;23.77;58.12
59190;BME280;50749;51.636;4.948;2023-07-09T02:21:58;101762.13;;;23.74;58.05
59190;BME280;50749;51.636;4.948;2023-07-09T02:24:24;101760.94;;;23.76;58.19
59190;BME280;50749;51.636;4.948;2023-07-09T02:26:51;101761.75;;;23.76;58.06
59190;BME280;50749;51.636;4.948;2023-07-09T02:29:17;101766.53;;;23.76;58.27
59190;BME280;50749;51.636;4.948;2023-07-09T02:31:44;101760.94;;;23.76;58.60
59190;BME280;50749;51.636;4.948;2023-07-09T02:34:10;101757.31;;;23.75;58.04
59190;BME280;50749;51.636;4.948;2023-07-09T02:36:36;101764.91;;;23.74;58.38
59190;BME280;50749;51.636;4.948;2023-07-09T02:39:02;101762.13;;;23.74;58.60
59190;BME280;50749;51.636;4.948;2023-07-09T02:41:28;101757.69;;;23.73;58.51
59190;BME280;50749;51.636;4.948;2023-07-09T02:43:53;101764.47;;;23.72;58.47
59190;BME280;50749;51.636;4.948;2023-07-09T02:46:19;101767.28;;;23.72;58.44
59190;BME280;50749;51.636;4.948;2023-07-09T02:48:45;101758.91;;;23.72;58.49
59190;BME280;50749;51.636;4.948;2023-07-09T02:51:11;101763.28;;;23.73;58.27
59190;BME280;50749;51.636;4.948;2023-07-09T02:53:36;101758.91;;;23.72;58.33
59190;BME280;50749;51.636;4.948;2023-07-09T02:56:02;101763.28;;;23.73;58.14
59190;BME280;50749;51.636;4.948;2023-07-09T02:58:28;101758.06;;;23.72;58.20
59190;BME280;50749;51.636;4.948;2023-07-09T03:00:54;101760.06;;;23.71;58.17
59190;BME280;50749;51.636;4.948;2023-07-09T03:03:20;101766.44;;;23.72;58.02
59190;BME280;50749;51.636;4.948;2023-07-09T03:05:47;101764.84;;;23.71;58.11
59190;BME280;50749;51.636;4.948;2023-07-09T03:08:13;101770.44;;;23.71;57.97
59190;BME280;50749;51.636;4.948;2023-07-09T03:10:40;101765.66;;;23.71;58.17
59190;BME280;50749;51.636;4.948;2023-07-09T03:13:05;101764.84;;;23.71;58.44
59190;BME280;50749;51.636;4.948;2023-07-09T03:15:31;101770.81;;;23.69;58.49
59190;BME280;50749;51.636;4.948;2023-07-09T03:17:57;101764.84;;;23.71;58.11
59190;BME280;50749;51.636;4.948;2023-07-09T03:20:24;101769.66;;;23.70;58.33
59190;BME280;50749;51.636;4.948;2023-07-09T03:22:50;101769.66;;;23.70;58.02
59190;BME280;50749;51.636;4.948;2023-07-09T03:25:16;101772.44;;;23.70;58.28
59190;BME280;50749;51.636;4.948;2023-07-09T03:27:42;101769.66;;;23.70;58.40
59190;BME280;50749;51.636;4.948;2023-07-09T03:30:08;101762.44;;;23.69;58.49
59190;BME280;50749;51.636;4.948;2023-07-09T03:32:34;101766.78;;;23.67;58.09
59190;BME280;50749;51.636;4.948;2023-07-09T03:35:00;101771.19;;;23.68;58.08
59190;BME280;50749;51.636;4.948;2023-07-09T03:37:25;101773.97;;;23.68;58.20
59190;BME280;50749;51.636;4.948;2023-07-09T03:39:51;101778.41;;;23.69;57.86
59190;BME280;50749;51.636;4.948;2023-07-09T03:42:17;101775.59;;;23.69;57.99
59190;BME280;50749;51.636;4.948;2023-07-09T03:44:43;101774.78;;;23.68;58.19
59190;BME280;50749;51.636;4.948;2023-07-09T03:47:08;101777.56;;;23.68;58.31
59190;BME280;50749;51.636;4.948;2023-07-09T03:49:34;101778.75;;;23.67;58.11
59190;BME280;50749;51.636;4.948;2023-07-09T03:52:00;101784.34;;;23.67;57.91
59190;BME280;50749;51.636;4.948;2023-07-09T03:54:26;101780.72;;;23.67;57.59
59190;BME280;50749;51.636;4.948;2023-07-09T03:56:51;101780.72;;;23.67;58.12
59190;BME280;50749;51.636;4.948;2023-07-09T03:59:17;101781.56;;;23.67;57.86
59190;BME280;50749;51.636;4.948;2023-07-09T04:01:43;101784.72;;;23.66;57.65
59190;BME280;50749;51.636;4.948;2023-07-09T04:04:12;101789.94;;;23.67;58.04
59190;BME280;50749;51.636;4.948;2023-07-09T04:06:38;101777.50;;;23.65;58.13
59190;BME280;50749;51.636;4.948;2023-07-09T04:09:04;101777.94;;;23.67;57.34
59190;BME280;50749;51.636;4.948;2023-07-09T04:11:30;101782.72;;;23.66;58.05
59190;BME280;50749;51.636;4.948;2023-07-09T04:13:56;101777.16;;;23.66;57.67
59190;BME280;50749;51.636;4.948;2023-07-09T04:16:22;101774.34;;;23.66;57.92
59190;BME280;50749;51.636;4.948;2023-07-09T04:18:48;101777.16;;;23.66;57.47
59190;BME280;50749;51.636;4.948;2023-07-09T04:21:14;101778.72;;;23.64;57.74
59190;BME280;50749;51.636;4.948;2023-07-09T04:23:39;101767.97;;;23.66;57.43
59190;BME280;50749;51.636;4.948;2023-07-09T04:26:05;101761.56;;;23.65;57.59
59190;BME280;50749;51.636;4.948;2023-07-09T04:28:34;101765.56;;;23.64;57.76
59190;BME280;50749;51.636;4.948;2023-07-09T04:31:00;101769.13;;;23.65;57.69
59190;BME280;50749;51.636;4.948;2023-07-09T04:33:26;101763.56;;;23.65;57.46
59190;BME280;50749;51.636;4.948;2023-07-09T04:35:52;101767.16;;;23.65;57.68
59190;BME280;50749;51.636;4.948;2023-07-09T04:38:18;101764.75;;;23.64;57.35
59190;BME280;50749;51.636;4.948;2023-07-09T04:40:44;101765.56;;;23.64;57.58
59190;BME280;50749;51.636;4.948;2023-07-09T04:43:10;101765.56;;;23.64;57.89
59190;BME280;50749;51.636;4.948;2023-07-09T04:45:36;101769.94;;;23.65;57.71
59190;BME280;50749;51.636;4.948;2023-07-09T04:48:02;101771.56;;;23.66;57.79
59190;BME280;50749;51.636;4.948;2023-07-09T04:50:27;101774.72;;;23.65;57.96
59190;BME280;50749;51.636;4.948;2023-07-09T04:52:53;101768.78;;;23.66;57.66
59190;BME280;50749;51.636;4.948;2023-07-09T04:55:19;101770.38;;;23.67;57.77
59190;BME280;50749;51.636;4.948;2023-07-09T04:57:45;101766.78;;;23.67;57.39
59190;BME280;50749;51.636;4.948;2023-07-09T05:00:11;101763.97;;;23.67;57.37
59190;BME280;50749;51.636;4.948;2023-07-09T05:02:37;101767.22;;;23.69;57.78
59190;BME280;50749;51.636;4.948;2023-07-09T05:05:03;101766.78;;;23.67;57.64
59190;BME280;50749;51.636;4.948;2023-07-09T05:07:29;101773.97;;;23.68;57.77
59190;BME280;50749;51.636;4.948;2023-07-09T05:09:56;101763.97;;;23.67;57.73
59190;BME280;50749;51.636;4.948;2023-07-09T05:12:26;101771.97;;;23.68;57.63
59190;BME280;50749;51.636;4.948;2023-07-09T05:14:52;101767.59;;;23.67;57.51
59190;BME280;50749;51.636;4.948;2023-07-09T05:17:18;101773.59;;;23.69;57.25
59190;BME280;50749;51.636;4.948;2023-07-09T05:19:43;101781.59;;;23.71;57.87
59190;BME280;50749;51.636;4.948;2023-07-09T05:22:09;101785.19;;;23.71;57.61
59190;BME280;50749;51.636;4.948;2023-07-09T05:24:35;101782.03;;;23.73;57.21
59190;BME280;50749;51.636;4.948;2023-07-09T05:27:01;101781.22;;;23.72;57.32
59190;BME280;50749;51.636;4.948;2023-07-09T05:29:27;101788.03;;;23.75;57.31
59190;BME280;50749;51.636;4.948;2023-07-09T05:31:53;101794.44;;;23.76;56.99
59190;BME280;50749;51.636;4.948;2023-07-09T05:34:18;101787.66;;;23.77;57.05
59190;BME280;50749;51.636;4.948;2023-07-09T05:36:44;101791.28;;;23.77;57.07
59190;BME280;50749;51.636;4.948;2023-07-09T05:39:10;101788.09;;;23.79;56.70
59190;BME280;50749;51.636;4.948;2023-07-09T05:41:36;101779.72;;;23.79;57.22
59190;BME280;50749;51.636;4.948;2023-07-09T05:44:02;101780.16;;;23.81;56.88
59190;BME280;50749;51.636;4.948;2023-07-09T05:46:27;101780.16;;;23.81;56.38
59190;BME280;50749;51.636;4.948;2023-07-09T05:48:53;101778.16;;;23.81;56.59
59190;BME280;50749;51.636;4.948;2023-07-09T05:51:19;101793.38;;;23.84;56.44
59190;BME280;50749;51.636;4.948;2023-07-09T05:53:46;101790.59;;;23.84;56.17
59190;BME280;50749;51.636;4.948;2023-07-09T05:56:12;101784.63;;;23.85;56.54
59190;BME280;50749;51.636;4.948;2023-07-09T05:58:38;101797.03;;;23.88;55.81
59190;BME280;50749;51.636;4.948;2023-07-09T06:01:04;101798.25;;;23.90;56.25
59190;BME280;50749;51.636;4.948;2023-07-09T06:03:29;101795.91;;;23.92;56.32
59190;BME280;50749;51.636;4.948;2023-07-09T06:05:56;101794.34;;;23.95;55.89
59190;BME280;50749;51.636;4.948;2023-07-09T06:08:22;101802.34;;;23.97;56.47
59190;BME280;50749;51.636;4.948;2023-07-09T06:10:57;101795.59;;;23.98;56.21
59190;BME280;50749;51.636;4.948;2023-07-09T06:13:23;101798.00;;;23.99;56.25
59190;BME280;50749;51.636;4.948;2023-07-09T06:15:50;101796.44;;;24.02;55.54
59190;BME280;50749;51.636;4.948;2023-07-09T06:18:16;101793.63;;;24.02;55.71
59190;BME280;50749;51.636;4.948;2023-07-09T06:20:47;101794.06;;;24.04;55.89
59190;BME280;50749;51.636;4.948;2023-07-09T06:23:12;101803.69;;;24.06;55.51
59190;BME280;50749;51.636;4.948;2023-07-09T06:25:38;101795.31;;;24.06;55.69
59190;BME280;50749;51.636;4.948;2023-07-09T06:28:04;101795.34;;;24.10;55.50
59190;BME280;50749;51.636;4.948;2023-07-09T06:30:30;101787.38;;;24.12;55.10
59190;BME280;50749;51.636;4.948;2023-07-09T06:32:55;101783.44;;;24.13;54.95
59190;BME280;50749;51.636;4.948;2023-07-09T06:35:21;101781.44;;;24.14;55.39
59190;BME280;50749;51.636;4.948;2023-07-09T06:37:47;101779.06;;;24.16;54.84
59190;BME280;50749;51.636;4.948;2023-07-09T06:40:13;101776.72;;;24.18;55.05
59190;BME280;50749;51.636;4.948;2023-07-09T06:42:39;101778.31;;;24.19;54.83
59190;BME280;50749;51.636;4.948;2023-07-09T06:45:05;101791.09;;;24.20;54.78
59190;BME280;50749;51.636;4.948;2023-07-09T06:47:31;101784.75;;;24.23;54.81
59190;BME280;50749;51.636;4.948;2023-07-09T06:49:56;101784.38;;;24.24;54.61
59190;BME280;50749;51.636;4.948;2023-07-09T06:52:22;101791.97;;;24.27;54.52
59190;BME280;50749;51.636;4.948;2023-07-09T06:54:49;101790.00;;;24.28;55.26
59190;BME280;50749;51.636;4.948;2023-07-09T06:57:14;101799.22;;;24.32;54.32
59190;BME280;50749;51.636;4.948;2023-07-09T06:59:40;101786.09;;;24.33;55.01
59190;BME280;50749;51.636;4.948;2023-07-09T07:02:06;101789.34;;;24.38;55.53
59190;BME280;50749;51.636;4.948;2023-07-09T07:04:32;101798.13;;;24.40;55.49
59190;BME280;50749;51.636;4.948;2023-07-09T07:06:57;101804.16;;;24.42;55.15
59190;BME280;50749;51.636;4.948;2023-07-09T07:09:23;101800.19;;;24.43;55.26
59190;BME280;50749;51.636;4.948;2023-07-09T07:11:49;101805.00;;;24.46;54.81
59190;BME280;50749;51.636;4.948;2023-07-09T07:14:15;101809.78;;;24.46;55.48
59190;BME280;50749;51.636;4.948;2023-07-09T07:16:41;101803.44;;;24.49;54.82
59190;BME280;50749;51.636;4.948;2023-07-09T07:19:07;101804.25;;;24.50;54.94
59190;BME280;50749;51.636;4.948;2023-07-09T07:21:32;101801.88;;;24.52;54.99
59190;BME280;50749;51.636;4.948;2023-07-09T07:23:58;101799.88;;;24.52;55.26
59190;BME280;50749;51.636;4.948;2023-07-09T07:26:24;101800.69;;;24.53;55.06
59190;BME280;50749;51.636;4.948;2023-07-09T07:28:50;101794.34;;;24.56;55.06
59190;BME280;50749;51.636;4.948;2023-07-09T07:31:16;101790.81;;;24.59;54.82
59190;BME280;50749;51.636;4.948;2023-07-09T07:33:42;101789.63;;;24.60;55.09
59190;BME280;50749;51.636;4.948;2023-07-09T07:36:08;101795.63;;;24.62;55.07
59190;BME280;50749;51.636;4.948;2023-07-09T07:38:34;101798.06;;;24.63;55.21
59190;BME280;50749;51.636;4.948;2023-07-09T07:41:01;101787.66;;;24.64;55.57
59190;BME280;50749;51.636;4.948;2023-07-09T07:43:27;101790.47;;;24.64;55.50
59190;BME280;50749;51.636;4.948;2023-07-09T07:45:52;101795.66;;;24.65;55.29
59190;BME280;50749;51.636;4.948;2023-07-09T07:48:18;101792.50;;;24.67;56.09
59190;BME280;50749;51.636;4.948;2023-07-09T07:50:45;101794.13;;;24.68;55.84
59190;BME280;50749;51.636;4.948;2023-07-09T07:53:14;101795.72;;;24.69;55.83
59190;BME280;50749;51.636;4.948;2023-07-09T07:55:40;101800.50;;;24.69;55.81
59190;BME280;50749;51.636;4.948;2023-07-09T07:58:16;101801.31;;;24.69;55.56
59190;BME280;50749;51.636;4.948;2023-07-09T08:00:41;101795.72;;;24.69;55.16
59190;BME280;50749;51.636;4.948;2023-07-09T08:03:07;101797.75;;;24.72;56.07
59190;BME280;50749;51.636;4.948;2023-07-09T08:05:33;101790.97;;;24.73;55.59
59190;BME280;50749;51.636;4.948;2023-07-09T08:07:59;101786.59;;;24.76;56.12
59190;BME280;50749;51.636;4.948;2023-07-09T08:10:24;101784.59;;;24.76;55.25
59190;BME280;50749;51.636;4.948;2023-07-09T08:12:50;101787.00;;;24.78;55.48
59190;BME280;50749;51.636;4.948;2023-07-09T08:15:16;101783.44;;;24.81;55.56
59190;BME280;50749;51.636;4.948;2023-07-09T08:17:43;101795.88;;;24.83;55.60
59190;BME280;50749;51.636;4.948;2023-07-09T08:20:09;101792.69;;;24.85;55.72
59190;BME280;50749;51.636;4.948;2023-07-09T08:22:35;101792.31;;;24.87;55.06
59190;BME280;50749;51.636;4.948;2023-07-09T08:25:00;101790.72;;;24.89;55.40
59190;BME280;50749;51.636;4.948;2023-07-09T08:27:26;101790.34;;;24.91;55.69
59190;BME280;50749;51.636;4.948;2023-07-09T08:29:52;101789.97;;;24.92;55.28
59190;BME280;50749;51.636;4.948;2023-07-09T08:32:18;101785.16;;;24.93;55.40
59190;BME280;50749;51.636;4.948;2023-07-09T08:34:43;101789.59;;;24.94;55.72
59190;BME280;50749;51.636;4.948;2023-07-09T08:37:09;101784.78;;;24.94;56.12
59190;BME280;50749;51.636;4.948;2023-07-09T08:39:35;101789.22;;;24.95;55.40
59190;BME280;50749;51.636;4.948;2023-07-09T08:42:04;101789.59;;;24.94;55.29
59190;BME280;50749;51.636;4.948;2023-07-09T08:49:59;101789.59;;;24.94;55.47
59190;BME280;50749;51.636;4.948;2023-07-09T08:52:48;101787.97;;;24.93;55.84
59190;BME280;50749;51.636;4.948;2023-07-09T08:55:18;101790.75;;;24.93;55.84
59190;BME280;50749;51.636;4.948;2023-07-09T08:57:58;101783.13;;;24.90;56.22
59190;BME280;50749;51.636;4.948;2023-07-09T09:00:31;101783.59;;;24.92;55.93
59190;BME280;50749;51.636;4.948;2023-07-09T09:03:26;101783.97;;;24.90;56.22
59190;BME280;50749;51.636;4.948;2023-07-09T09:05:54;101773.56;;;24.91;56.01
59190;BME280;50749;51.636;4.948;2023-07-09T09:08:40;101775.97;;;24.92;55.99
59190;BME280;50749;51.636;4.948;2023-07-09T09:13:39;101780.84;;;24.99;56.80
59190;BME280;50749;51.636;4.948;2023-07-09T09:16:10;101784.84;;;25.01;56.70
59190;BME280;50749;51.636;4.948;2023-07-09T09:18:41;101779.25;;;25.01;55.88
59190;BME280;50749;51.636;4.948;2023-07-09T09:21:16;101776.88;;;25.00;55.36
59190;BME280;50749;51.636;4.948;2023-07-09T09:23:53;101773.63;;;24.98;55.42
59190;BME280;50749;51.636;4.948;2023-07-09T09:26:24;101775.25;;;24.99;55.34
59190;BME280;50749;51.636;4.948;2023-07-09T09:28:52;101776.44;;;24.98;55.35
59190;BME280;50749;51.636;4.948;2023-07-09T09:31:18;101764.81;;;24.96;55.53
59190;BME280;50749;51.636;4.948;2023-07-09T09:33:46;101770.03;;;24.97;55.56
59190;BME280;50749;51.636;4.948;2023-07-09T09:36:19;101770.84;;;24.98;55.48
59190;BME280;50749;51.636;4.948;2023-07-09T09:38:45;101762.44;;;24.98;55.28
59190;BME280;50749;51.636;4.948;2023-07-09T09:41:25;101757.69;;;24.98;54.82
59190;BME280;50749;51.636;4.948;2023-07-09T09:43:55;101752.09;;;24.98;55.31
59190;BME280;50749;51.636;4.948;2023-07-09T09:46:26;101750.88;;;24.99;55.57
59190;BME280;50749;51.636;4.948;2023-07-09T09:48:59;101752.88;;;24.99;55.37
59190;BME280;50749;51.636;4.948;2023-07-09T09:51:26;101750.50;;;25.01;55.19
59190;BME280;50749;51.636;4.948;2023-07-09T09:54:00;101758.50;;;25.02;55.31
59190;BME280;50749;51.636;4.948;2023-07-09T09:56:29;101763.28;;;25.02;55.06
59190;BME280;50749;51.636;4.948;2023-07-09T09:58:57;101762.09;;;25.03;54.94
59190;BME280;50749;51.636;4.948;2023-07-09T10:01:34;101767.69;;;25.03;54.48
59190;BME280;50749;51.636;4.948;2023-07-09T10:04:04;101775.69;;;25.04;55.27
59190;BME280;50749;51.636;4.948;2023-07-09T10:06:46;101771.72;;;25.06;54.84
59190;BME280;50749;51.636;4.948;2023-07-09T10:09:28;101774.50;;;25.06;54.77
59190;BME280;50749;51.636;4.948;2023-07-09T10:12:02;101769.72;;;25.06;55.03
59190;BME280;50749;51.636;4.948;2023-07-09T10:19:52;101800.91;;;25.08;54.75
59190;BME280;50749;51.636;4.948;2023-07-09T10:25:21;101796.13;;;25.09;54.89
59190;BME280;50749;51.636;4.948;2023-07-09T10:33:44;101791.34;;;25.09;54.79
59190;BME280;50749;51.636;4.948;2023-07-09T10:39:06;101801.72;;;25.09;54.75
59190;BME280;50749;51.636;4.948;2023-07-09T10:41:35;101808.13;;;25.09;55.02
59190;BME280;50749;51.636;4.948;2023-07-09T10:44:19;101799.72;;;25.09;54.88
59190;BME280;50749;51.636;4.948;2023-07-09T10:46:53;101804.13;;;25.10;54.90
59190;BME280;50749;51.636;4.948;2023-07-09T10:49:20;101794.13;;;25.09;54.70
59190;BME280;50749;51.636;4.948;2023-07-09T10:51:53;101797.34;;;25.11;55.22
59190;BME280;50749;51.636;4.948;2023-07-09T10:54:30;101794.53;;;25.11;55.09
59190;BME280;50749;51.636;4.948;2023-07-09T10:57:11;101804.56;;;25.12;55.17
59190;BME280;50749;51.636;4.948;2023-07-09T10:59:41;101784.97;;;25.12;54.94
59190;BME280;50749;51.636;4.948;2023-07-09T11:04:47;101790.56;;;25.12;55.34
59190;BME280;50749;51.636;4.948;2023-07-09T11:07:18;101787.38;;;25.14;55.17
59190;BME280;50749;51.636;4.948;2023-07-09T11:09:48;101788.56;;;25.13;54.96
59190;BME280;50749;51.636;4.948;2023-07-09T11:12:23;101801.38;;;25.14;55.80
59190;BME280;50749;51.636;4.948;2023-07-09T11:17:39;101810.56;;;25.14;55.59
59190;BME280;50749;51.636;4.948;2023-07-09T11:20:19;101818.94;;;25.14;55.83
59190;BME280;50749;51.636;4.948;2023-07-09T11:23:02;101831.75;;;25.15;55.56
59190;BME280;50749;51.636;4.948;2023-07-09T11:25:43;101840.16;;;25.15;55.59
59190;BME280;50749;51.636;4.948;2023-07-09T11:28:09;101838.53;;;25.14;56.18
59190;BME280;50749;51.636;4.948;2023-07-09T11:30:53;101849.34;;;25.16;56.13
59190;BME280;50749;51.636;4.948;2023-07-09T11:33:20;101845.75;;;25.15;55.75
59190;BME280;50749;51.636;4.948;2023-07-09T11:36:08;101854.16;;;25.15;56.15
59190;BME280;50749;51.636;4.948;2023-07-09T11:38:45;101850.13;;;25.16;56.16
59190;BME280;50749;51.636;4.948;2023-07-09T11:41:39;101855.75;;;25.16;56.36
59190;BME280;50749;51.636;4.948;2023-07-09T11:49:43;101864.13;;;25.16;55.91
59190;BME280;50749;51.636;4.948;2023-07-09T11:52:12;101862.53;;;25.15;55.89
59190;BME280;50749;51.636;4.948;2023-07-09T11:54:38;101860.53;;;25.16;56.08
59190;BME280;50749;51.636;4.948;2023-07-09T11:57:11;101865.34;;;25.15;56.15
59190;BME280;50749;51.636;4.948;2023-07-09T11:59:40;101862.53;;;25.15;55.95
59190;BME280;50749;51.636;4.948;2023-07-09T12:02:15;101870.94;;;25.15;56.57
59190;BME280;50749;51.636;4.948;2023-07-09T12:04:41;101872.53;;;25.16;56.01
59190;BME280;50749;51.636;4.948;2023-07-09T12:07:12;101875.31;;;25.16;55.95
59190;BME280;50749;51.636;4.948;2023-07-09T12:09:41;101872.53;;;25.16;56.56
59190;BME280;50749;51.636;4.948;2023-07-09T12:12:20;101869.72;;;25.16;56.63
59190;BME280;50749;51.636;4.948;2023-07-09T12:14:47;101860.16;;;25.17;55.95
59190;BME280;50749;51.636;4.948;2023-07-09T12:17:14;101854.56;;;25.17;56.46
59190;BME280;50749;51.636;4.948;2023-07-09T12:19:40;101873.34;;;25.17;56.10
59190;BME280;50749;51.636;4.948;2023-07-09T12:22:10;101872.53;;;25.16;56.23
59190;BME280;50749;51.636;4.948;2023-07-09T12:24:42;101868.13;;;25.15;56.09
59190;BME280;50749;51.636;4.948;2023-07-09T12:29:43;101879.31;;;25.15;56.67
59190;BME280;50749;51.636;4.948;2023-07-09T12:32:13;101882.91;;;25.16;56.49
59190;BME280;50749;51.636;4.948;2023-07-09T12:34:39;101877.31;;;25.16;56.59
59190;BME280;50749;51.636;4.948;2023-07-09T12:37:05;101875.31;;;25.16;56.61
59190;BME280;50749;51.636;4.948;2023-07-09T12:39:33;101873.72;;;25.15;56.28
59190;BME280;50749;51.636;4.948;2023-07-09T12:42:01;101874.53;;;25.16;56.25
59190;BME280;50749;51.636;4.948;2023-07-09T12:44:31;101873.72;;;25.15;56.24
59190;BME280;50749;51.636;4.948;2023-07-09T12:46:59;101880.50;;;25.14;56.03
59190;BME280;50749;51.636;4.948;2023-07-09T12:49:36;101882.13;;;25.15;56.39
59190;BME280;50749;51.636;4.948;2023-07-09T12:52:07;101866.50;;;25.14;56.59
59190;BME280;50749;51.636;4.948;2023-07-09T12:54:35;101860.13;;;25.14;56.52
59190;BME280;50749;51.636;4.948;2023-07-09T12:57:08;101864.94;;;25.13;56.54
59190;BME280;50749;51.636;4.948;2023-07-09T12:59:40;101865.72;;;25.14;56.79
59190;BME280;50749;51.636;4.948;2023-07-09T13:02:24;101864.94;;;25.13;55.96
59190;BME280;50749;51.636;4.948;2023-07-09T13:05:03;101863.31;;;25.12;56.78
59190;BME280;50749;51.636;4.948;2023-07-09T13:07:33;101869.69;;;25.13;56.16
59190;BME280;50749;51.636;4.948;2023-07-09T13:10:06;101860.50;;;25.12;56.16
59190;BME280;50749;51.636;4.948;2023-07-09T13:12:33;101864.09;;;25.13;56.46
59190;BME280;50749;51.636;4.948;2023-07-09T13:14:59;101861.31;;;25.13;56.51
59190;BME280;50749;51.636;4.948;2023-07-09T13:17:30;101863.31;;;25.12;56.37
59190;BME280;50749;51.636;4.948;2023-07-09T13:19:56;101854.91;;;25.12;56.24
59190;BME280;50749;51.636;4.948;2023-07-09T13:22:23;101867.28;;;25.11;56.22
59190;BME280;50749;51.636;4.948;2023-07-09T13:24:50;101875.66;;;25.11;56.04
59190;BME280;50749;51.636;4.948;2023-07-09T13:27:16;101878.06;;;25.09;56.22
59190;BME280;50749;51.636;4.948;2023-07-09T13:29:42;101884.81;;;25.08;56.44
59190;BME280;50749;51.636;4.948;2023-07-09T13:32:12;101880.84;;;25.09;56.14
59190;BME280;50749;51.636;4.948;2023-07-09T13:34:40;101875.25;;;25.09;56.43
59190;BME280;50749;51.636;4.948;2023-07-09T13:37:14;101882.03;;;25.08;56.69
59190;BME280;50749;51.636;4.948;2023-07-09T13:39:41;101888.81;;;25.07;56.44
59190;BME280;50749;51.636;4.948;2023-07-09T13:42:13;101894.00;;;25.05;56.82